createdAt,value
2023-05-05T00:03:44.353Z,11.80
2023-05-05T00:08:46.990Z,11.80
2023-05-05T00:13:49.388Z,11.80
2023-05-05T00:18:51.766Z,11.80
2023-05-05T00:23:54.484Z,11.70
2023-05-05T00:28:57.251Z,11.40
2023-05-05T00:33:59.472Z,11.20
2023-05-05T00:39:01.748Z,11.30
2023-05-05T00:44:04.186Z,11.30
2023-05-05T00:49:07.385Z,11.30
2023-05-05T00:54:10.050Z,11.30
2023-05-05T00:59:12.369Z,11.40
2023-05-05T01:04:14.732Z,11.30
2023-05-05T01:14:40.368Z,11.10
2023-05-05T01:20:08.107Z,10.90
2023-05-05T01:30:47.855Z,11.00
2023-05-05T01:35:56.140Z,11.10
2023-05-05T01:41:18.291Z,11.10
2023-05-05T01:46:23.805Z,11.20
2023-05-05T01:51:28.119Z,11.30
2023-05-05T01:56:32.388Z,11.30
2023-05-05T02:01:39.300Z,11.10
2023-05-05T02:06:44.493Z,11.10
2023-05-05T02:11:46.885Z,11.10
2023-05-05T02:16:50.654Z,11.10
2023-05-05T02:21:52.912Z,11.10
2023-05-05T02:26:57.882Z,11.10
2023-05-05T02:32:05.530Z,11.10
2023-05-05T02:37:12.682Z,11.10
2023-05-05T02:42:21.884Z,11.10
2023-05-05T02:47:36.665Z,11.10
2023-05-05T02:52:39.843Z,11.10
2023-05-05T02:58:05.137Z,11.20
2023-05-05T03:03:38.529Z,11.20
2023-05-05T03:14:17.025Z,11.10
2023-05-05T03:19:21.482Z,11.10
2023-05-05T03:24:28.899Z,11.10
2023-05-05T03:29:38.209Z,11.20
2023-05-05T03:34:44.816Z,11.20
2023-05-05T03:39:47.192Z,11.20
2023-05-05T03:44:52.251Z,11.10
2023-05-05T03:49:55.315Z,11.30
2023-05-05T03:54:57.941Z,11.30
2023-05-05T04:00:01.399Z,11.40
2023-05-05T04:05:05.332Z,11.40
2023-05-05T04:10:09.131Z,11.40
2023-05-05T04:15:11.805Z,11.40
2023-05-05T04:20:15.660Z,11.50
2023-05-05T04:25:18.104Z,11.60
2023-05-05T04:30:21.220Z,11.70
2023-05-05T04:35:23.626Z,11.80
2023-05-05T04:40:27.682Z,11.90
2023-05-05T04:45:31.751Z,12.00
2023-05-05T04:50:34.202Z,12.10
2023-05-05T04:55:36.512Z,12.20
2023-05-05T05:00:39.137Z,12.20
2023-05-05T05:05:42.820Z,12.40
2023-05-05T05:10:45.371Z,12.40
2023-05-05T05:15:47.848Z,12.50
2023-05-05T05:20:50.283Z,12.70
2023-05-05T05:25:53.461Z,12.90
2023-05-05T05:30:57.300Z,13.00
2023-05-05T05:35:59.790Z,13.10
2023-05-05T05:41:07.478Z,13.20
2023-05-05T05:46:12.647Z,13.70
2023-05-05T05:51:16.814Z,14.00
2023-05-05T05:56:19.417Z,14.30
2023-05-05T06:01:22.321Z,14.30
2023-05-05T06:06:25.534Z,14.60
2023-05-05T06:11:28.945Z,14.50
2023-05-05T06:16:31.409Z,14.70
2023-05-05T06:21:37.648Z,14.80
2023-05-05T06:26:40.191Z,14.80
2023-05-05T06:31:42.536Z,14.80
2023-05-05T06:36:45.548Z,14.80
2023-05-05T06:41:49.152Z,14.90
2023-05-05T06:46:51.871Z,14.70
2023-05-05T06:51:54.196Z,14.90
2023-05-05T06:56:59.328Z,14.90
2023-05-05T07:02:02.088Z,14.70
2023-05-05T07:07:04.310Z,14.70
2023-05-05T07:12:07.072Z,14.80
2023-05-05T07:17:11.158Z,14.80
2023-05-05T07:22:13.349Z,15.10
2023-05-05T07:27:15.735Z,15.10
2023-05-05T07:32:17.977Z,15.10
2023-05-05T07:37:20.260Z,14.70
2023-05-05T07:42:22.525Z,14.60
2023-05-05T07:47:24.813Z,14.70
2023-05-05T07:52:43.556Z,15.00
2023-05-05T07:57:47.781Z,15.40
2023-05-05T08:02:50.881Z,15.60
2023-05-05T08:07:53.211Z,15.70
2023-05-05T08:12:55.827Z,15.80
2023-05-05T08:17:58.144Z,15.70
2023-05-05T08:23:00.398Z,15.70
2023-05-05T08:28:02.767Z,15.90
2023-05-05T08:33:05.080Z,15.80
2023-05-05T08:38:07.364Z,15.70
2023-05-05T08:43:09.764Z,15.80
2023-05-05T08:48:12.824Z,15.80
2023-05-05T08:53:30.205Z,16.00
2023-05-05T08:58:33.056Z,16.20
2023-05-05T09:03:37.121Z,16.70
2023-05-05T09:08:39.812Z,16.40
2023-05-05T09:13:43.595Z,16.70
2023-05-05T09:18:45.906Z,16.70
2023-05-05T09:29:22.778Z,16.70
2023-05-05T09:34:25.022Z,17.00
2023-05-05T09:39:27.366Z,16.60
2023-05-05T09:44:35.186Z,16.30
2023-05-05T09:49:38.584Z,16.00
2023-05-05T09:54:41.430Z,15.90
2023-05-05T09:59:56.596Z,15.80
2023-05-05T10:05:16.372Z,15.60
2023-05-05T10:10:19.345Z,15.70
2023-05-05T10:15:22.330Z,15.80
2023-05-05T10:20:26.398Z,15.80
2023-05-05T10:25:31.579Z,15.60
2023-05-05T10:30:39.820Z,15.40
2023-05-05T10:35:44.856Z,15.40
2023-05-05T10:40:48.836Z,15.40
2023-05-05T10:45:51.926Z,15.30
2023-05-05T10:51:05.720Z,15.50
2023-05-05T10:56:19.821Z,15.70
2023-05-05T11:06:39.109Z,15.80
2023-05-05T11:12:02.012Z,15.40
2023-05-05T11:17:04.241Z,15.70
2023-05-05T11:22:06.456Z,15.80
2023-05-05T11:27:09.821Z,15.80
2023-05-05T11:32:13.799Z,15.80
2023-05-05T11:37:16.827Z,15.80
2023-05-05T11:42:24.875Z,15.90
2023-05-05T11:47:29.294Z,15.90
2023-05-05T11:52:31.658Z,16.20
2023-05-05T11:57:33.877Z,16.10
2023-05-05T12:02:36.690Z,16.20
2023-05-05T12:07:39.040Z,16.10
2023-05-05T12:12:42.326Z,16.10
2023-05-05T12:17:46.998Z,16.10
2023-05-05T12:22:49.234Z,15.80
2023-05-05T12:27:53.430Z,16.00
2023-05-05T12:33:05.117Z,16.30
2023-05-05T12:38:07.459Z,16.30
2023-05-05T12:43:09.750Z,16.20
2023-05-05T12:48:27.632Z,16.20
2023-05-05T12:53:29.785Z,16.00
2023-05-05T12:58:49.359Z,16.10
2023-05-05T13:14:36.346Z,16.10
2023-05-05T13:19:45.998Z,16.10
2023-05-05T13:24:52.469Z,16.20
2023-05-05T13:29:55.211Z,16.40
2023-05-05T13:34:58.098Z,16.10
2023-05-05T13:40:00.498Z,16.10
2023-05-05T13:45:02.656Z,16.30
2023-05-05T13:50:05.368Z,16.40
2023-05-05T13:55:08.384Z,16.50
2023-05-05T14:00:11.744Z,16.60
2023-05-05T14:05:14.726Z,16.60
2023-05-05T14:10:17.032Z,16.50
2023-05-05T14:15:19.352Z,16.60
2023-05-05T14:20:21.692Z,16.70
2023-05-05T14:25:25.262Z,16.80
2023-05-05T14:30:27.567Z,16.80
2023-05-05T14:35:31.259Z,17.10
2023-05-05T14:40:33.460Z,17.30
2023-05-05T14:45:35.780Z,17.40
2023-05-05T14:50:39.990Z,17.20
2023-05-05T14:55:42.299Z,17.10
2023-05-05T15:00:45.104Z,16.90
2023-05-05T15:05:47.335Z,16.70
2023-05-05T15:10:49.598Z,16.60
2023-05-05T15:15:51.993Z,16.60
2023-05-05T15:20:54.222Z,16.60
2023-05-05T15:25:56.503Z,16.60
2023-05-05T15:31:02.194Z,16.70
2023-05-05T15:36:04.626Z,16.80
2023-05-05T15:41:07.190Z,17.10
2023-05-05T15:46:09.377Z,17.30
2023-05-05T15:51:12.763Z,17.40
2023-05-05T15:56:14.932Z,17.40
2023-05-05T16:01:17.134Z,17.10
2023-05-05T16:06:19.348Z,17.30
2023-05-05T16:11:22.514Z,17.20
2023-05-05T16:16:24.824Z,17.40
2023-05-05T16:21:27.654Z,17.50
2023-05-05T16:26:29.901Z,17.70
2023-05-05T16:31:34.048Z,17.70
2023-05-05T16:36:36.376Z,17.80
2023-05-05T16:41:38.620Z,17.90
2023-05-05T16:46:40.994Z,17.90
2023-05-05T16:51:43.256Z,17.70
2023-05-05T16:56:45.482Z,17.60
2023-05-05T17:01:47.767Z,17.60
2023-05-05T17:06:50.093Z,17.60
2023-05-05T17:11:52.325Z,17.50
2023-05-05T17:16:54.586Z,17.50
2023-05-05T17:21:56.843Z,17.40
2023-05-05T17:26:59.653Z,17.40
2023-05-05T17:32:02.113Z,17.30
2023-05-05T17:37:04.831Z,17.20
2023-05-05T17:42:07.057Z,17.00
2023-05-05T17:47:10.544Z,16.90
2023-05-05T17:52:12.729Z,16.90
2023-05-05T17:57:20.931Z,16.70
2023-05-05T18:02:24.254Z,16.60
2023-05-05T18:07:27.684Z,16.60
2023-05-05T18:12:29.947Z,16.60
2023-05-05T18:17:32.184Z,16.60
2023-05-05T18:22:34.741Z,16.50
2023-05-05T18:27:37.419Z,16.50
2023-05-05T18:32:39.680Z,16.30
2023-05-05T18:37:42.329Z,16.20
2023-05-05T18:42:44.588Z,16.20
2023-05-05T18:47:46.773Z,16.20
2023-05-05T18:52:49.050Z,16.20
2023-05-05T18:57:51.304Z,16.10
2023-05-05T19:02:54.330Z,16.00
2023-05-05T19:07:56.525Z,16.00
2023-05-05T19:12:59.176Z,16.10
2023-05-05T19:18:01.820Z,16.00
2023-05-05T19:23:05.191Z,16.00
2023-05-05T19:28:07.508Z,16.00
2023-05-05T19:33:09.751Z,16.00
2023-05-05T19:38:12.387Z,16.00
2023-05-05T19:43:15.088Z,15.90
2023-05-05T19:48:17.275Z,15.80
2023-05-05T19:53:19.532Z,15.70
2023-05-05T19:58:22.004Z,15.70
2023-05-05T20:03:24.364Z,15.70
2023-05-05T20:08:26.729Z,15.70
2023-05-05T20:13:29.051Z,15.70
2023-05-05T20:18:31.376Z,15.70
2023-05-05T20:23:33.783Z,15.60
2023-05-05T20:28:36.892Z,15.60
2023-05-05T20:33:39.099Z,15.60
2023-05-05T20:38:41.272Z,15.50
2023-05-05T20:43:43.567Z,15.50
2023-05-05T20:48:45.921Z,15.40
2023-05-05T20:53:48.298Z,15.40
2023-05-05T20:58:50.487Z,15.40
2023-05-05T21:03:52.998Z,15.30
2023-05-05T21:08:55.154Z,15.30
2023-05-05T21:13:57.384Z,15.30
2023-05-05T21:18:59.521Z,15.20
2023-05-05T21:24:01.847Z,15.20
2023-05-05T21:29:04.073Z,15.20
2023-05-05T21:34:06.256Z,15.10
2023-05-05T21:39:08.509Z,15.10
2023-05-05T21:44:10.670Z,15.00
2023-05-05T21:49:14.156Z,15.10
2023-05-05T21:54:16.526Z,15.00
2023-05-05T21:59:18.752Z,15.00
2023-05-05T22:04:21.332Z,15.00
2023-05-05T22:09:23.560Z,14.90
2023-05-05T22:14:25.817Z,14.80
2023-05-05T22:19:28.111Z,14.80
2023-05-05T22:24:30.731Z,14.70
2023-05-05T22:29:33.350Z,14.60
2023-05-05T22:34:36.598Z,14.40
2023-05-05T22:39:38.807Z,14.40
2023-05-05T22:44:41.042Z,14.30
2023-05-05T22:49:43.275Z,14.20
2023-05-05T22:54:45.590Z,14.20
2023-05-05T22:59:47.986Z,14.30
2023-05-05T23:04:51.177Z,14.40
2023-05-05T23:09:53.507Z,14.50
2023-05-05T23:14:55.916Z,14.60
2023-05-05T23:19:58.135Z,14.70
2023-05-05T23:25:00.279Z,14.70
2023-05-05T23:30:02.475Z,14.70
2023-05-05T23:35:05.167Z,14.70
2023-05-05T23:40:08.024Z,14.60
2023-05-05T23:45:11.335Z,14.50
2023-05-05T23:50:13.797Z,14.50
2023-05-05T23:55:15.964Z,14.50
